KHIO/HIO METAR and TAF weather

Enter ICAO airport designator
Station Type Date Time Source
KHIO METAR 2018/12/13 07:53 UTC NOAA

KHIO 130753Z AUTO 12006KT 10SM OVC090 08/05 A3021 RMK AO2 SLP232 T00830050 400940017


Station Type Date Time Source
KHIO Decoded METAR 2018/12/13 07:53 UTC NOAA

PORTLAND-HILLSBORO AIRPORT, OR, United States (KHIO) 45-33N 122-57W 68M
Dec 13, 2018 - 02:53 AM EST / 2018.12.13 0753 UTC
Wind: from the ESE (120 degrees) at 7 MPH (6 KT):0
Visibility: 10 mile(s):0
Sky conditions: overcast
Temperature: 46.9 F (8.3 C)
Dew Point: 41.0 F (5.0 C)
Relative Humidity: 79%
Pressure (altimeter): 30.21 in. Hg (1023 hPa)
ob: KHIO 130753Z AUTO 12006KT 10SM OVC090 08/05 A3021 RMK AO2 SLP232 T00830050 400940017
cycle: 8

Station Type Date Time Source
KHIO TAF 2018/12/13 06:46 UTC NOAA

TAF KHIO 130544Z 1306/1406 16010KT P6SM -RA BKN040 OVC080
FM131200 17013KT P6SM BKN050 OVC100
FM131800 17010KT P6SM SCT050 OVC100
FM140000 16007KT P6SM SCT100 OVC150


Example: see airport list